sensor_id;sensor_type;location;lat;lon;timestamp;pressure;altitude;pressure_sealevel;temperature;humidity
31011;BME280;26395;53.412;19.598;2023-02-17T00:08:56;100558.66;;;6.84;100.00
31011;BME280;26395;53.412;19.598;2023-02-17T00:23:59;100541.88;;;6.80;100.00
31011;BME280;26395;53.412;19.598;2023-02-17T00:39:05;100521.73;;;6.87;100.00
31011;BME280;26395;53.412;19.598;2023-02-17T00:54:08;100519.42;;;6.86;100.00
31011;BME280;26395;53.412;19.598;2023-02-17T01:09:12;100508.45;;;6.81;100.00
31011;BME280;26395;53.412;19.598;2023-02-17T01:24:16;100499.86;;;6.77;100.00
31011;BME280;26395;53.412;19.598;2023-02-17T01:39:19;100490.05;;;6.88;100.00
31011;BME280;26395;53.412;19.598;2023-02-17T01:54:32;100479.73;;;6.99;100.00
31011;BME280;26395;53.412;19.598;2023-02-17T02:09:40;100455.48;;;7.03;100.00
31011;BME280;26395;53.412;19.598;2023-02-17T02:25:14;100439.36;;;7.04;100.00
31011;BME280;26395;53.412;19.598;2023-02-17T02:40:28;100432.34;;;7.10;100.00
31011;BME280;26395;53.412;19.598;2023-02-17T02:55:52;100410.68;;;7.04;100.00
31011;BME280;26395;53.412;19.598;2023-02-17T03:10:59;100396.27;;;7.01;100.00
31011;BME280;26395;53.412;19.598;2023-02-17T03:26:10;100393.41;;;7.17;100.00
31011;BME280;26395;53.412;19.598;2023-02-17T03:41:32;100386.12;;;7.24;100.00
31011;BME280;26395;53.412;19.598;2023-02-17T03:56:36;100366.30;;;7.26;100.00
31011;BME280;26395;53.412;19.598;2023-02-17T04:11:39;100342.90;;;7.23;100.00
31011;BME280;26395;53.412;19.598;2023-02-17T04:26:43;100320.14;;;7.18;100.00
31011;BME280;26395;53.412;19.598;2023-02-17T04:41:48;100298.20;;;7.08;100.00
31011;BME280;26395;53.412;19.598;2023-02-17T04:56:51;100298.98;;;7.05;100.00
31011;BME280;26395;53.412;19.598;2023-02-17T05:11:54;100291.46;;;7.13;100.00
31011;BME280;26395;53.412;19.598;2023-02-17T05:26:57;100285.73;;;7.10;100.00
31011;BME280;26395;53.412;19.598;2023-02-17T05:42:01;100281.30;;;7.11;100.00
31011;BME280;26395;53.412;19.598;2023-02-17T05:57:04;100269.52;;;7.11;100.00
31011;BME280;26395;53.412;19.598;2023-02-17T06:12:07;100264.58;;;7.17;100.00
31011;BME280;26395;53.412;19.598;2023-02-17T06:27:11;100248.56;;;7.24;100.00
31011;BME280;26395;53.412;19.598;2023-02-17T06:42:15;100242.50;;;7.21;100.00
31011;BME280;26395;53.412;19.598;2023-02-17T06:57:18;100245.39;;;7.29;100.00
31011;BME280;26395;53.412;19.598;2023-02-17T07:12:21;100242.33;;;7.37;100.00
31011;BME280;26395;53.412;19.598;2023-02-17T07:27:25;100236.03;;;7.45;100.00
31011;BME280;26395;53.412;19.598;2023-02-17T07:42:28;100235.27;;;7.43;100.00
31011;BME280;26395;53.412;19.598;2023-02-17T07:57:32;100230.59;;;7.55;100.00
31011;BME280;26395;53.412;19.598;2023-02-17T08:12:35;100224.16;;;7.68;100.00
31011;BME280;26395;53.412;19.598;2023-02-17T08:27:57;100205.61;;;7.76;100.00
31011;BME280;26395;53.412;19.598;2023-02-17T08:43:00;100173.74;;;7.79;100.00
31011;BME280;26395;53.412;19.598;2023-02-17T08:58:05;100163.60;;;7.79;100.00
31011;BME280;26395;53.412;19.598;2023-02-17T09:13:09;100145.80;;;7.80;100.00
31011;BME280;26395;53.412;19.598;2023-02-17T09:28:12;100129.64;;;7.93;100.00
31011;BME280;26395;53.412;19.598;2023-02-17T09:43:24;100120.87;;;7.96;100.00
31011;BME280;26395;53.412;19.598;2023-02-17T09:58:36;100101.89;;;8.00;100.00
31011;BME280;26395;53.412;19.598;2023-02-17T10:13:41;100080.98;;;7.85;100.00
31011;BME280;26395;53.412;19.598;2023-02-17T10:44:16;100026.58;;;7.92;100.00
31011;BME280;26395;53.412;19.598;2023-02-17T10:59:42;99993.86;;;7.96;100.00
31011;BME280;26395;53.412;19.598;2023-02-17T11:14:49;99959.17;;;7.99;100.00
31011;BME280;26395;53.412;19.598;2023-02-17T11:30:08;99902.09;;;8.11;100.00
31011;BME280;26395;53.412;19.598;2023-02-17T11:45:22;99850.42;;;8.25;100.00
31011;BME280;26395;53.412;19.598;2023-02-17T12:00:42;99819.85;;;8.36;100.00
31011;BME280;26395;53.412;19.598;2023-02-17T12:16:08;99784.59;;;8.49;100.00
31011;BME280;26395;53.412;19.598;2023-02-17T12:46:37;99716.96;;;8.51;100.00
31011;BME280;26395;53.412;19.598;2023-02-17T13:01:50;99679.64;;;8.54;100.00
31011;BME280;26395;53.412;19.598;2023-02-17T13:16:54;99653.17;;;8.63;100.00
31011;BME280;26395;53.412;19.598;2023-02-17T13:32:01;99627.17;;;8.73;100.00
31011;BME280;26395;53.412;19.598;2023-02-17T13:47:21;99601.77;;;8.84;100.00
31011;BME280;26395;53.412;19.598;2023-02-17T14:02:28;99566.79;;;8.95;100.00
31011;BME280;26395;53.412;19.598;2023-02-17T14:17:40;99530.23;;;8.98;100.00
31011;BME280;26395;53.412;19.598;2023-02-17T14:32:43;99473.23;;;9.09;100.00
31011;BME280;26395;53.412;19.598;2023-02-17T14:47:47;99423.59;;;9.12;100.00
31011;BME280;26395;53.412;19.598;2023-02-17T15:02:50;99381.87;;;9.19;100.00
31011;BME280;26395;53.412;19.598;2023-02-17T15:17:54;99342.71;;;9.27;100.00
31011;BME280;26395;53.412;19.598;2023-02-17T15:32:58;99326.05;;;9.37;100.00
31011;BME280;26395;53.412;19.598;2023-02-17T16:03:10;99263.05;;;9.62;100.00
31011;BME280;26395;53.412;19.598;2023-02-17T16:18:22;99230.00;;;9.69;100.00
31011;BME280;26395;53.412;19.598;2023-02-17T16:33:25;99203.63;;;9.80;100.00
31011;BME280;26395;53.412;19.598;2023-02-17T16:48:31;99170.63;;;9.90;100.00
31011;BME280;26395;53.412;19.598;2023-02-17T17:03:36;99134.17;;;10.05;100.00
31011;BME280;26395;53.412;19.598;2023-02-17T17:18:39;99120.38;;;10.23;100.00
31011;BME280;26395;53.412;19.598;2023-02-17T17:33:44;99098.36;;;10.35;100.00
31011;BME280;26395;53.412;19.598;2023-02-17T17:48:53;99077.88;;;10.49;100.00
31011;BME280;26395;53.412;19.598;2023-02-17T18:03:59;99057.14;;;10.62;100.00
31011;BME280;26395;53.412;19.598;2023-02-17T18:19:05;99050.30;;;10.79;100.00
31011;BME280;26395;53.412;19.598;2023-02-17T18:34:10;99027.73;;;11.01;100.00
31011;BME280;26395;53.412;19.598;2023-02-17T18:49:13;99003.48;;;11.11;100.00
31011;BME280;26395;53.412;19.598;2023-02-17T19:04:16;98972.23;;;11.34;100.00
31011;BME280;26395;53.412;19.598;2023-02-17T19:19:20;98947.98;;;11.51;100.00
31011;BME280;26395;53.412;19.598;2023-02-17T19:34:24;98915.98;;;11.60;100.00
31011;BME280;26395;53.412;19.598;2023-02-17T19:49:27;98933.02;;;11.68;100.00
31011;BME280;26395;53.412;19.598;2023-02-17T20:04:31;98962.20;;;11.64;100.00
31011;BME280;26395;53.412;19.598;2023-02-17T20:19:38;98970.27;;;11.41;100.00
31011;BME280;26395;53.412;19.598;2023-02-17T20:34:42;98966.00;;;11.21;100.00
31011;BME280;26395;53.412;19.598;2023-02-17T20:49:46;98978.59;;;10.99;99.66
31011;BME280;26395;53.412;19.598;2023-02-17T21:04:51;98993.30;;;10.81;96.89
31011;BME280;26395;53.412;19.598;2023-02-17T21:20:00;98986.52;;;10.76;94.89
31011;BME280;26395;53.412;19.598;2023-02-17T21:35:10;99002.61;;;10.66;92.81
31011;BME280;26395;53.412;19.598;2023-02-17T21:50:19;99011.88;;;10.47;84.59
31011;BME280;26395;53.412;19.598;2023-02-17T22:05:42;98995.21;;;10.37;77.59
31011;BME280;26395;53.412;19.598;2023-02-17T22:21:34;98990.65;;;10.23;75.95
31011;BME280;26395;53.412;19.598;2023-02-17T22:37:10;98999.13;;;10.02;77.26
31011;BME280;26395;53.412;19.598;2023-02-17T22:52:33;98999.61;;;9.89;74.11
31011;BME280;26395;53.412;19.598;2023-02-17T23:08:32;98970.52;;;9.80;71.96
31011;BME280;26395;53.412;19.598;2023-02-17T23:23:40;98973.41;;;9.80;71.58
31011;BME280;26395;53.412;19.598;2023-02-17T23:38:54;98974.52;;;9.66;70.82
31011;BME280;26395;53.412;19.598;2023-02-17T23:54:15;98974.55;;;9.83;70.26
